POL weather

Polonia Airport
Polonia, Huila Department, Colombia

Public forecast

Using degrees Celsius for public forecast. Weather courtesy of forecast.io.

Closest aviation weather report (METAR) to Polonia Airport

Closest report is Benito Salas Airport, 20.4 nm (37.9 km) SSW. Retrieved 2019/10/22 19:00 UTC (54 minutes ago):

SKNV 221900Z VRB04KT 9999 VCSH FEW040 33/19 A2977 RMK VCSH E/S

Closest aviation forecast (TAF) to Polonia Airport

Closest forecast is Alfonso Bonilla Aragon International Airport, 74.6 nm (138.2 km) WNW. Retrieved 2019/10/22 18:30 UTC (1 hour ago):

TAF SKCL 221630Z 2218/2318 35008KT 9999 SCT020 SCT080 TEMPO 2220/2222 8000 VCSH SCT018TCU BECMG 2223/2301 VRB02KT FEW015 BKN080 PROB40 TEMPO 2307/2309 8000 DZ TEMPO 2311/2313 7000 VCFG BKN030 TX30/2219Z TN19/2311Z